createdAt,value
2019-03-03T00:00:19.591Z,0
2019-03-03T00:01:19.090Z,0
2019-03-03T00:02:19.581Z,0
2019-03-03T00:03:19.344Z,0
2019-03-03T00:04:18.845Z,0
2019-03-03T00:05:19.494Z,0
2019-03-03T00:06:19.329Z,0
2019-03-03T00:07:19.579Z,0
2019-03-03T00:08:19.380Z,0
2019-03-03T00:09:19.318Z,0
2019-03-03T00:10:19.747Z,0
2019-03-03T00:11:19.301Z,0
2019-03-03T00:12:19.298Z,0
2019-03-03T00:13:19.026Z,0
2019-03-03T00:14:19.040Z,0
2019-03-03T00:15:19.362Z,0
2019-03-03T00:16:19.270Z,0
2019-03-03T00:17:19.498Z,0
2019-03-03T00:18:19.502Z,0
2019-03-03T00:19:18.999Z,0
2019-03-03T00:20:19.555Z,0
2019-03-03T00:21:19.511Z,0
2019-03-03T00:22:19.228Z,0
2019-03-03T00:23:19.466Z,0
2019-03-03T00:24:19.263Z,0
2019-03-03T00:25:18.796Z,0
2019-03-03T00:26:19.223Z,0
2019-03-03T00:27:19.227Z,0
2019-03-03T00:28:19.206Z,0
2019-03-03T00:29:19.186Z,0
2019-03-03T00:30:19.537Z,0
2019-03-03T00:31:19.206Z,0
2019-03-03T00:32:19.194Z,0
2019-03-03T00:33:19.428Z,0
2019-03-03T00:34:18.905Z,0
2019-03-03T00:35:19.200Z,0
2019-03-03T00:36:19.155Z,0
2019-03-03T00:37:19.164Z,0
2019-03-03T00:38:18.940Z,0
2019-03-03T00:39:18.899Z,0
2019-03-03T00:40:18.956Z,0
2019-03-03T00:41:18.669Z,0
2019-03-03T00:42:19.216Z,0
2019-03-03T00:43:18.850Z,0
2019-03-03T00:44:19.400Z,0
2019-03-03T00:45:19.452Z,0
2019-03-03T00:46:19.353Z,0
2019-03-03T00:47:19.122Z,0
2019-03-03T00:48:19.347Z,0
2019-03-03T00:49:18.816Z,0
2019-03-03T00:50:19.148Z,0
2019-03-03T00:51:18.825Z,0
2019-03-03T00:52:21.380Z,0
2019-03-03T00:53:18.546Z,0
2019-03-03T00:54:18.797Z,0
2019-03-03T00:55:19.091Z,0
2019-03-03T00:56:19.049Z,0
2019-03-03T00:57:18.780Z,0
2019-03-03T00:58:19.279Z,0
2019-03-03T00:59:19.017Z,0
2019-03-03T01:00:19.401Z,0
2019-03-03T01:01:18.514Z,0
2019-03-03T01:02:19.268Z,0
2019-03-03T01:03:18.761Z,0
2019-03-03T01:04:19.306Z,0
2019-03-03T01:05:19.007Z,0
2019-03-03T01:06:18.965Z,0
2019-03-03T01:07:18.738Z,0
2019-03-03T01:08:19.017Z,0
2019-03-03T01:09:18.995Z,0
2019-03-03T01:10:18.992Z,0
2019-03-03T01:11:19.200Z,0
2019-03-03T01:12:18.949Z,0
2019-03-03T01:13:18.932Z,0
2019-03-03T01:14:19.194Z,0
2019-03-03T01:15:18.959Z,0
2019-03-03T01:16:19.179Z,0
2019-03-03T01:17:18.921Z,0
2019-03-03T01:18:18.923Z,0
2019-03-03T01:19:19.195Z,0
2019-03-03T01:20:18.926Z,0
2019-03-03T01:21:18.957Z,0
2019-03-03T01:22:18.637Z,0
2019-03-03T01:23:18.890Z,0
2019-03-03T01:24:18.620Z,0
2019-03-03T01:25:18.917Z,0
2019-03-03T01:26:19.121Z,0
2019-03-03T01:27:18.853Z,0
2019-03-03T01:28:18.596Z,0
2019-03-03T01:29:18.618Z,0
2019-03-03T01:30:18.843Z,0
2019-03-03T01:31:19.097Z,0
2019-03-03T01:32:18.899Z,0
2019-03-03T01:33:19.103Z,0
2019-03-03T01:34:19.573Z,0
2019-03-03T01:35:18.876Z,0
2019-03-03T01:36:18.935Z,0
2019-03-03T01:37:18.596Z,0
2019-03-03T01:38:18.788Z,0
2019-03-03T01:39:18.782Z,0
2019-03-03T01:40:19.113Z,0
2019-03-03T01:41:18.848Z,0
2019-03-03T01:42:18.855Z,0
2019-03-03T01:43:18.779Z,0
2019-03-03T01:44:18.767Z,0
2019-03-03T01:45:18.823Z,0
2019-03-03T01:46:18.764Z,0
2019-03-03T01:47:18.536Z,0
2019-03-03T01:48:18.258Z,0
2019-03-03T01:49:19.046Z,0
2019-03-03T01:50:18.790Z,0
2019-03-03T01:51:18.229Z,0
2019-03-03T01:52:18.473Z,0
2019-03-03T01:53:18.986Z,0
2019-03-03T01:54:18.958Z,0
2019-03-03T01:55:18.750Z,0
2019-03-03T01:56:18.712Z,0
2019-03-03T01:57:18.457Z,0
2019-03-03T01:58:18.699Z,0
2019-03-03T01:59:18.494Z,0
2019-03-03T02:00:18.951Z,0
2019-03-03T02:01:18.691Z,0
2019-03-03T02:02:18.929Z,0
2019-03-03T02:03:18.465Z,0
2019-03-03T02:04:18.562Z,0
2019-03-03T02:05:18.675Z,0
2019-03-03T02:06:18.415Z,0
2019-03-03T02:07:18.643Z,0
2019-03-03T02:08:18.909Z,0
2019-03-03T02:09:18.899Z,0
2019-03-03T02:10:18.397Z,0
2019-03-03T02:11:18.622Z,0
2019-03-03T02:12:18.853Z,0
2019-03-03T02:13:18.388Z,0
2019-03-03T02:14:18.611Z,0
2019-03-03T02:15:18.397Z,0
2019-03-03T02:16:18.353Z,0
2019-03-03T02:17:18.838Z,0
2019-03-03T02:18:18.835Z,0
2019-03-03T02:19:18.328Z,0
2019-03-03T02:20:18.646Z,0
2019-03-03T02:21:18.565Z,0
2019-03-03T02:22:18.565Z,0
2019-03-03T02:23:18.812Z,0
2019-03-03T02:24:18.619Z,0
2019-03-03T02:25:18.576Z,0
2019-03-03T02:26:18.801Z,0
2019-03-03T02:27:18.775Z,0
2019-03-03T02:28:18.284Z,0
2019-03-03T02:29:18.540Z,0
2019-03-03T02:30:18.839Z,0
2019-03-03T02:31:18.784Z,0
2019-03-03T02:32:18.527Z,0
2019-03-03T02:33:18.767Z,0
2019-03-03T02:34:19.315Z,0
2019-03-03T02:35:18.611Z,0
2019-03-03T02:36:18.757Z,0
2019-03-03T02:37:18.510Z,0
2019-03-03T02:38:18.766Z,0
2019-03-03T02:39:18.245Z,0
2019-03-03T02:40:18.915Z,0
2019-03-03T02:41:18.722Z,0
2019-03-03T02:42:18.734Z,0
2019-03-03T02:43:18.713Z,0
2019-03-03T02:44:18.476Z,0
2019-03-03T02:45:18.702Z,0
2019-03-03T02:46:18.492Z,0
2019-03-03T02:47:18.736Z,0
2019-03-03T02:48:18.486Z,0
2019-03-03T02:49:17.940Z,0
2019-03-03T02:50:18.545Z,0
2019-03-03T02:51:18.448Z,0
2019-03-03T02:52:18.422Z,0
2019-03-03T02:53:18.652Z,0
2019-03-03T02:54:18.419Z,0
2019-03-03T02:55:18.254Z,0
2019-03-03T02:56:18.629Z,0
2019-03-03T02:57:18.642Z,0
2019-03-03T02:58:18.404Z,0
2019-03-03T02:59:18.402Z,0
2019-03-03T03:00:18.696Z,0
2019-03-03T03:01:18.611Z,0
2019-03-03T03:02:18.599Z,0
2019-03-03T03:03:18.366Z,0
2019-03-03T03:04:18.604Z,0
2019-03-03T03:05:18.656Z,0
2019-03-03T03:06:18.594Z,0
2019-03-03T03:07:18.622Z,0
2019-03-03T03:08:18.323Z,0
2019-03-03T03:09:18.330Z,0
2019-03-03T03:10:18.569Z,0
2019-03-03T03:11:18.057Z,0
2019-03-03T03:12:18.543Z,0
2019-03-03T03:13:18.552Z,0
2019-03-03T03:14:18.542Z,0
2019-03-03T03:15:18.329Z,0
2019-03-03T03:16:18.022Z,0
2019-03-03T03:17:18.275Z,0
2019-03-03T03:18:18.256Z,0
2019-03-03T03:19:18.257Z,0
2019-03-03T03:20:18.327Z,0
2019-03-03T03:21:18.248Z,0
2019-03-03T03:22:18.498Z,0
2019-03-03T03:23:18.510Z,0
2019-03-03T03:24:18.552Z,0
2019-03-03T03:25:18.470Z,0
2019-03-03T03:26:18.255Z,0
2019-03-03T03:27:18.002Z,0
2019-03-03T03:28:18.502Z,0
2019-03-03T03:29:18.496Z,0
2019-03-03T03:30:18.603Z,0
2019-03-03T03:31:18.535Z,0
2019-03-03T03:32:18.227Z,0
2019-03-03T03:33:18.456Z,0
2019-03-03T03:34:18.441Z,0
2019-03-03T03:35:18.667Z,0
2019-03-03T03:36:18.476Z,0
2019-03-03T03:37:18.431Z,0
2019-03-03T03:38:18.158Z,0
2019-03-03T03:39:17.658Z,0
2019-03-03T03:40:18.457Z,0
2019-03-03T03:41:17.896Z,0
2019-03-03T03:42:18.381Z,0
2019-03-03T03:43:18.156Z,0
2019-03-03T03:44:18.151Z,0
2019-03-03T03:45:18.169Z,0
2019-03-03T03:46:18.125Z,0
2019-03-03T03:47:18.356Z,0
2019-03-03T03:48:18.103Z,0
2019-03-03T03:49:18.130Z,0
2019-03-03T03:50:18.152Z,0
2019-03-03T03:51:18.093Z,0
2019-03-03T03:52:18.134Z,0
2019-03-03T03:53:18.318Z,0
2019-03-03T03:54:18.318Z,0
2019-03-03T03:55:18.414Z,0
2019-03-03T03:56:18.310Z,0
2019-03-03T03:57:18.060Z,0
2019-03-03T03:58:18.295Z,0
2019-03-03T03:59:18.305Z,0
2019-03-03T04:00:18.351Z,0
2019-03-03T04:01:17.846Z,0
2019-03-03T04:02:18.274Z,0
2019-03-03T04:03:17.826Z,0
2019-03-03T04:04:18.050Z,0
2019-03-03T04:05:18.563Z,0
2019-03-03T04:06:18.291Z,0
2019-03-03T04:07:18.261Z,0
2019-03-03T04:08:18.239Z,0
2019-03-03T04:09:18.239Z,0
2019-03-03T04:10:18.013Z,0
2019-03-03T04:11:17.977Z,0
2019-03-03T04:12:18.219Z,0
2019-03-03T04:13:18.215Z,0
2019-03-03T04:14:18.194Z,0
2019-03-03T04:15:18.237Z,0
2019-03-03T04:16:17.976Z,0
2019-03-03T04:17:17.679Z,0
2019-03-03T04:18:17.921Z,0
2019-03-03T04:19:18.179Z,0
2019-03-03T04:20:17.968Z,0
2019-03-03T04:21:17.425Z,0
2019-03-03T04:22:17.906Z,0
2019-03-03T04:23:18.133Z,0
2019-03-03T04:24:17.885Z,0
2019-03-03T04:25:17.881Z,0
2019-03-03T04:26:18.169Z,0
2019-03-03T04:27:17.860Z,0
2019-03-03T04:28:18.120Z,0
2019-03-03T04:29:17.846Z,0
2019-03-03T04:30:17.657Z,0
2019-03-03T04:31:17.853Z,0
2019-03-03T04:32:17.819Z,0
2019-03-03T04:33:18.060Z,0
2019-03-03T04:34:19.720Z,0
2019-03-03T04:35:17.902Z,0
2019-03-03T04:36:17.560Z,0
2019-03-03T04:37:18.059Z,0
2019-03-03T04:38:17.802Z,0
2019-03-03T04:39:17.562Z,0
2019-03-03T04:40:18.098Z,0
2019-03-03T04:41:17.558Z,0
2019-03-03T04:42:17.527Z,0
2019-03-03T04:43:18.003Z,0
2019-03-03T04:44:18.013Z,0
2019-03-03T04:45:18.551Z,0
2019-03-03T04:46:17.745Z,0
2019-03-03T04:47:17.765Z,0
2019-03-03T04:48:17.745Z,0
2019-03-03T04:49:17.994Z,0
2019-03-03T04:50:18.046Z,0
2019-03-03T04:51:17.695Z,0
2019-03-03T04:52:17.690Z,0
2019-03-03T04:53:17.943Z,0
2019-03-03T04:54:17.695Z,0
2019-03-03T04:55:17.995Z,0
2019-03-03T04:56:17.931Z,0
2019-03-03T04:57:17.671Z,0
2019-03-03T04:58:17.676Z,0
2019-03-03T04:59:17.420Z,0
2019-03-03T05:00:17.910Z,0
2019-03-03T05:01:17.649Z,0
2019-03-03T05:02:17.886Z,0
2019-03-03T05:03:17.378Z,0
2019-03-03T05:04:17.627Z,0
2019-03-03T05:05:18.868Z,0
2019-03-03T05:06:17.853Z,0
2019-03-03T05:07:17.845Z,0
2019-03-03T05:08:17.601Z,0
2019-03-03T05:09:17.847Z,0
2019-03-03T05:10:17.819Z,0
2019-03-03T05:11:17.581Z,0
2019-03-03T05:12:17.311Z,0
2019-03-03T05:13:17.558Z,0
2019-03-03T05:14:17.544Z,0
2019-03-03T05:15:17.061Z,0
2019-03-03T05:16:17.540Z,0
2019-03-03T05:17:17.571Z,0
2019-03-03T05:18:17.852Z,0
2019-03-03T05:19:17.522Z,0
2019-03-03T05:20:17.509Z,0
2019-03-03T05:21:17.522Z,0
2019-03-03T05:22:17.266Z,0
2019-03-03T05:23:17.490Z,0
2019-03-03T05:24:17.490Z,0
2019-03-03T05:25:17.475Z,0
2019-03-03T05:26:16.972Z,0
2019-03-03T05:27:17.463Z,0
2019-03-03T05:28:17.464Z,0
2019-03-03T05:29:17.486Z,0
2019-03-03T05:30:17.223Z,0
2019-03-03T05:31:17.726Z,0
2019-03-03T05:32:17.205Z,4
2019-03-03T05:33:17.423Z,4
2019-03-03T05:34:17.428Z,4
2019-03-03T05:35:17.457Z,0
2019-03-03T05:36:17.167Z,0
2019-03-03T05:37:17.159Z,4
2019-03-03T05:38:17.665Z,4
2019-03-03T05:39:17.403Z,4
2019-03-03T05:40:17.458Z,8
2019-03-03T05:41:17.440Z,8
2019-03-03T05:42:17.417Z,8
2019-03-03T05:43:17.613Z,8
2019-03-03T05:44:17.095Z,8
2019-03-03T05:45:17.227Z,12
2019-03-03T05:46:17.328Z,12
2019-03-03T05:47:17.336Z,20
2019-03-03T05:48:17.566Z,24
2019-03-03T05:49:17.621Z,24
2019-03-03T05:50:17.063Z,32
2019-03-03T05:51:17.061Z,36
2019-03-03T05:52:17.040Z,44
2019-03-03T05:53:17.269Z,48
2019-03-03T05:54:17.273Z,56
2019-03-03T05:55:17.388Z,64
2019-03-03T05:56:18.917Z,72
2019-03-03T05:57:17.040Z,80
2019-03-03T05:58:17.508Z,88
2019-03-03T05:59:16.997Z,92
2019-03-03T06:00:17.554Z,100
2019-03-03T06:01:17.218Z,104
2019-03-03T06:02:16.979Z,116
2019-03-03T06:03:17.224Z,120
2019-03-03T06:04:17.229Z,128
2019-03-03T06:05:16.969Z,144
2019-03-03T06:06:17.747Z,156
2019-03-03T06:07:17.192Z,168
2019-03-03T06:08:17.181Z,176
2019-03-03T06:09:17.186Z,188
2019-03-03T06:10:17.218Z,200
2019-03-03T06:11:16.909Z,212
2019-03-03T06:12:17.396Z,232
2019-03-03T06:13:17.151Z,256
2019-03-03T06:14:17.396Z,284
2019-03-03T06:15:17.394Z,300
2019-03-03T06:16:16.857Z,304
2019-03-03T06:17:16.872Z,300
2019-03-03T06:18:17.096Z,316
2019-03-03T06:19:16.627Z,328
2019-03-03T06:20:16.891Z,336
2019-03-03T06:21:17.561Z,340
2019-03-03T06:22:16.813Z,356
2019-03-03T06:23:17.061Z,380
2019-03-03T06:24:16.813Z,400
2019-03-03T06:25:17.170Z,420
2019-03-03T06:26:16.781Z,444
2019-03-03T06:27:16.791Z,472
2019-03-03T06:28:17.018Z,500
2019-03-03T06:29:17.035Z,516
2019-03-03T06:30:16.848Z,548
2019-03-03T06:31:17.009Z,568
2019-03-03T06:32:16.758Z,580
2019-03-03T06:33:16.494Z,576
2019-03-03T06:34:16.728Z,556
2019-03-03T06:35:16.748Z,572
2019-03-03T06:36:17.837Z,600
2019-03-03T06:37:17.233Z,624
2019-03-03T06:38:16.691Z,656
2019-03-03T06:39:16.966Z,704
2019-03-03T06:40:17.197Z,748
2019-03-03T06:41:16.437Z,812
2019-03-03T06:42:16.690Z,892
2019-03-03T06:43:16.675Z,984
2019-03-03T06:44:16.921Z,1108
2019-03-03T06:45:17.049Z,1244
2019-03-03T06:46:16.663Z,1376
2019-03-03T06:47:16.904Z,1484
2019-03-03T06:48:16.654Z,1564
2019-03-03T06:49:16.903Z,1612
2019-03-03T06:50:17.216Z,1652
2019-03-03T06:51:17.123Z,1680
2019-03-03T06:52:16.861Z,1740
2019-03-03T06:53:16.368Z,1808
2019-03-03T06:54:16.599Z,1884
2019-03-03T06:55:16.917Z,1964
2019-03-03T06:56:16.582Z,2044
2019-03-03T06:57:16.832Z,2136
2019-03-03T06:58:16.329Z,2224
2019-03-03T06:59:17.075Z,2332
2019-03-03T07:00:17.428Z,2396
2019-03-03T07:01:16.801Z,2428
2019-03-03T07:02:16.810Z,2484
2019-03-03T07:03:16.794Z,2540
2019-03-03T07:04:16.792Z,2616
2019-03-03T07:05:16.831Z,2716
2019-03-03T07:06:16.664Z,2860
2019-03-03T07:07:16.772Z,2972
2019-03-03T07:08:17.011Z,3052
2019-03-03T07:09:17.014Z,3140
2019-03-03T07:10:17.089Z,3232
2019-03-03T07:11:17.067Z,3348
2019-03-03T07:12:16.742Z,3436
2019-03-03T07:13:16.968Z,3556
2019-03-03T07:14:16.731Z,3720
2019-03-03T07:15:16.763Z,3852
2019-03-03T07:16:16.467Z,3952
2019-03-03T07:17:16.467Z,4052
2019-03-03T07:18:16.958Z,4176
2019-03-03T07:19:16.716Z,4128
2019-03-03T07:20:16.561Z,4132
2019-03-03T07:21:16.704Z,4104
2019-03-03T07:22:16.675Z,4060
2019-03-03T07:23:16.665Z,3952
2019-03-03T07:24:16.680Z,3688
2019-03-03T07:25:16.990Z,3504
2019-03-03T07:26:16.425Z,3448
2019-03-03T07:27:16.665Z,3400
2019-03-03T07:28:17.316Z,3372
2019-03-03T07:29:16.633Z,3376
2019-03-03T07:30:16.715Z,3380
2019-03-03T07:31:16.367Z,3372
2019-03-03T07:32:16.632Z,3364
2019-03-03T07:33:16.861Z,3368
2019-03-03T07:34:16.601Z,3384
2019-03-03T07:35:16.877Z,3456
2019-03-03T07:36:19.406Z,3596
2019-03-03T07:37:16.602Z,3796
2019-03-03T07:38:16.832Z,4496
2019-03-03T07:39:16.592Z,5020
2019-03-03T07:40:16.849Z,5612
2019-03-03T07:41:16.564Z,5980
2019-03-03T07:42:16.337Z,5920
2019-03-03T07:43:16.309Z,5796
2019-03-03T07:44:16.366Z,5748
2019-03-03T07:45:16.600Z,4824
2019-03-03T07:46:16.054Z,4468
2019-03-03T07:47:16.299Z,5040
2019-03-03T07:48:16.788Z,6176
2019-03-03T07:49:16.557Z,5788
2019-03-03T07:50:16.906Z,4600
2019-03-03T07:51:16.780Z,4416
2019-03-03T07:52:16.281Z,4300
2019-03-03T07:53:16.537Z,4440
2019-03-03T07:54:16.534Z,5392
2019-03-03T07:55:16.287Z,4664
2019-03-03T07:56:16.532Z,4648
2019-03-03T07:57:16.043Z,4500
2019-03-03T07:58:16.288Z,4244
2019-03-03T07:59:16.863Z,3948
2019-03-03T08:00:16.638Z,3792
2019-03-03T08:01:16.542Z,3600
2019-03-03T08:02:16.762Z,3472
2019-03-03T08:03:16.044Z,3480
2019-03-03T08:04:16.498Z,3356
2019-03-03T08:05:16.568Z,3304
2019-03-03T08:06:16.294Z,3280
2019-03-03T08:07:16.033Z,3284
2019-03-03T08:08:16.758Z,3356
2019-03-03T08:09:16.739Z,3412
2019-03-03T08:10:16.299Z,3320
2019-03-03T08:11:16.245Z,3332
2019-03-03T08:12:16.740Z,3476
2019-03-03T08:13:16.974Z,3572
2019-03-03T08:14:16.724Z,3548
2019-03-03T08:15:16.467Z,3416
2019-03-03T08:16:17.867Z,3228
2019-03-03T08:17:16.718Z,3252
2019-03-03T08:18:16.702Z,3240
2019-03-03T08:19:16.707Z,3304
2019-03-03T08:20:16.315Z,3240
2019-03-03T08:21:16.208Z,3068
2019-03-03T08:22:16.708Z,2920
2019-03-03T08:23:16.696Z,2700
2019-03-03T08:24:16.450Z,2576
2019-03-03T08:25:16.220Z,2428
2019-03-03T08:26:16.429Z,2404
2019-03-03T08:27:16.682Z,2452
2019-03-03T08:28:16.175Z,2392
2019-03-03T08:29:16.416Z,2432
2019-03-03T08:30:16.271Z,2448
2019-03-03T08:31:16.660Z,2496
2019-03-03T08:32:16.420Z,2724
2019-03-03T08:33:15.922Z,2784
2019-03-03T08:34:16.179Z,2736
2019-03-03T08:35:16.515Z,2640
2019-03-03T08:36:16.889Z,2584
2019-03-03T08:37:16.316Z,2720
2019-03-03T08:38:16.630Z,2780
2019-03-03T08:39:16.385Z,2736
2019-03-03T08:40:16.408Z,2876
2019-03-03T08:41:16.385Z,2868
2019-03-03T08:42:16.385Z,2776
2019-03-03T08:43:16.369Z,2728
2019-03-03T08:44:16.600Z,2700
2019-03-03T08:45:15.958Z,2612
2019-03-03T08:46:16.360Z,2628
2019-03-03T08:47:16.592Z,2600
2019-03-03T08:48:16.616Z,2428
2019-03-03T08:49:16.598Z,2308
2019-03-03T08:50:15.910Z,2364
2019-03-03T08:51:16.583Z,2440
2019-03-03T08:52:16.585Z,2360
2019-03-03T08:53:16.327Z,2368
2019-03-03T08:54:16.316Z,2504
2019-03-03T08:55:16.581Z,2796
2019-03-03T08:56:16.319Z,2996
2019-03-03T08:57:16.326Z,3084
2019-03-03T08:58:16.067Z,3092
2019-03-03T08:59:16.066Z,3148
2019-03-03T09:00:18.144Z,3144
2019-03-03T09:01:16.070Z,3108
2019-03-03T09:02:17.124Z,3188
2019-03-03T09:03:16.047Z,3352
2019-03-03T09:04:16.061Z,3400
2019-03-03T09:05:16.365Z,3516
2019-03-03T09:06:16.541Z,3576
2019-03-03T09:07:16.704Z,3528
2019-03-03T09:08:16.268Z,3632
2019-03-03T09:09:15.762Z,3652
2019-03-03T09:10:25.150Z,3664
2019-03-03T09:11:16.029Z,3660
2019-03-03T09:12:16.865Z,3564
2019-03-03T09:13:16.527Z,3664
2019-03-03T09:14:15.771Z,3832
2019-03-03T09:15:16.134Z,3916
2019-03-03T09:16:16.013Z,3864
2019-03-03T09:17:16.228Z,3780
2019-03-03T09:18:16.262Z,3756
2019-03-03T09:19:16.270Z,3764
2019-03-03T09:20:15.981Z,3624
2019-03-03T09:21:16.230Z,3792
2019-03-03T09:22:16.239Z,4092
2019-03-03T09:23:16.491Z,4048
2019-03-03T09:24:16.205Z,4136
2019-03-03T09:25:16.528Z,4204
2019-03-03T09:26:16.204Z,4348
2019-03-03T09:27:15.955Z,4536
2019-03-03T09:28:16.446Z,4760
2019-03-03T09:29:16.439Z,4892
2019-03-03T09:30:16.245Z,5004
2019-03-03T09:31:16.215Z,5752
2019-03-03T09:32:16.422Z,6192
2019-03-03T09:33:15.694Z,6352
2019-03-03T09:34:16.176Z,6528
2019-03-03T09:35:16.030Z,6756
2019-03-03T09:36:16.410Z,6632
2019-03-03T09:37:16.172Z,6228
2019-03-03T09:38:16.177Z,6200
2019-03-03T09:39:16.412Z,6156
2019-03-03T09:40:16.839Z,6308
2019-03-03T09:41:16.404Z,5808
2019-03-03T09:42:16.159Z,5668
2019-03-03T09:43:16.413Z,5568
2019-03-03T09:44:17.729Z,5764
2019-03-03T09:45:16.191Z,5608
2019-03-03T09:46:16.169Z,4980
2019-03-03T09:47:15.908Z,4868
2019-03-03T09:48:16.383Z,4720
2019-03-03T09:49:17.219Z,4508
2019-03-03T09:50:16.172Z,4424
2019-03-03T09:51:16.368Z,4472
2019-03-03T09:52:16.391Z,4620
2019-03-03T09:53:16.124Z,4732
2019-03-03T09:54:16.372Z,4956
2019-03-03T09:55:16.431Z,5080
2019-03-03T09:56:15.870Z,5240
2019-03-03T09:57:16.130Z,5080
2019-03-03T09:58:16.368Z,5212
2019-03-03T09:59:15.850Z,5028
2019-03-03T10:00:16.103Z,4804
2019-03-03T10:01:16.357Z,4908
2019-03-03T10:02:16.097Z,5112
2019-03-03T10:03:16.366Z,5188
2019-03-03T10:04:16.096Z,5156
2019-03-03T10:05:16.125Z,5192
2019-03-03T10:06:15.851Z,5548
2019-03-03T10:07:18.407Z,5828
2019-03-03T10:08:20.381Z,6152
2019-03-03T10:09:16.362Z,6348
2019-03-03T10:10:16.135Z,6492
2019-03-03T10:11:16.315Z,6512
2019-03-03T10:12:15.819Z,7100
2019-03-03T10:13:16.072Z,7172
2019-03-03T10:14:16.056Z,7304
2019-03-03T10:15:16.371Z,7708
2019-03-03T10:16:15.822Z,7360
2019-03-03T10:17:16.321Z,7264
2019-03-03T10:18:16.293Z,7580
2019-03-03T10:19:16.309Z,7880
2019-03-03T10:20:16.298Z,7552
2019-03-03T10:21:16.291Z,7548
2019-03-03T10:22:16.286Z,8044
2019-03-03T10:23:16.280Z,7996
2019-03-03T10:24:16.043Z,7068
2019-03-03T10:25:16.300Z,6060
2019-03-03T10:26:16.024Z,5292
2019-03-03T10:27:16.026Z,4852
2019-03-03T10:28:16.050Z,5152
2019-03-03T10:29:16.318Z,5664
2019-03-03T10:30:16.103Z,5804
2019-03-03T10:31:15.830Z,5856
2019-03-03T10:32:16.278Z,6320
2019-03-03T10:33:15.777Z,6388
2019-03-03T10:34:16.018Z,5996
2019-03-03T10:35:16.111Z,5708
2019-03-03T10:36:16.008Z,5176
2019-03-03T10:37:17.017Z,4652
2019-03-03T10:38:16.250Z,4216
2019-03-03T10:39:15.759Z,3816
2019-03-03T10:40:16.080Z,3772
2019-03-03T10:41:16.268Z,3692
2019-03-03T10:42:15.991Z,3636
2019-03-03T10:43:15.994Z,3752
2019-03-03T10:44:16.001Z,3596
2019-03-03T10:45:15.842Z,3448
2019-03-03T10:46:16.249Z,3468
2019-03-03T10:47:15.989Z,3516
2019-03-03T10:48:15.987Z,3508
2019-03-03T10:49:15.742Z,3488
2019-03-03T10:50:16.275Z,3496
2019-03-03T10:51:16.224Z,3492
2019-03-03T10:52:15.728Z,3424
2019-03-03T10:53:15.966Z,3408
2019-03-03T10:54:15.974Z,3464
2019-03-03T10:55:15.976Z,3536
2019-03-03T10:56:15.952Z,3736
2019-03-03T10:57:16.199Z,4080
2019-03-03T10:58:16.224Z,4092
2019-03-03T10:59:15.948Z,4068
2019-03-03T11:00:16.002Z,4256
2019-03-03T11:01:15.951Z,4444
2019-03-03T11:02:16.191Z,4404
2019-03-03T11:03:15.948Z,4420
2019-03-03T11:04:15.695Z,4680
2019-03-03T11:05:16.174Z,5232
2019-03-03T11:06:15.937Z,5596
2019-03-03T11:07:15.699Z,5804
2019-03-03T11:08:17.386Z,6112
2019-03-03T11:09:16.188Z,6240
2019-03-03T11:10:15.975Z,6548
2019-03-03T11:11:15.919Z,6572
2019-03-03T11:12:16.180Z,6816
2019-03-03T11:13:15.920Z,7100
2019-03-03T11:14:16.034Z,7432
2019-03-03T11:15:25.298Z,7196
2019-03-03T11:16:15.926Z,7012
2019-03-03T11:17:15.906Z,7244
2019-03-03T11:18:16.310Z,7840
2019-03-03T11:19:15.660Z,8088
2019-03-03T11:20:15.475Z,8400
2019-03-03T11:21:16.185Z,8152
2019-03-03T11:22:15.644Z,7788
2019-03-03T11:23:16.150Z,7580
2019-03-03T11:24:15.945Z,7280
2019-03-03T11:25:15.904Z,7276
2019-03-03T11:26:16.135Z,7744
2019-03-03T11:27:16.032Z,7856
2019-03-03T11:28:25.710Z,8112
2019-03-03T11:29:15.945Z,8312
2019-03-03T11:30:16.169Z,8472
2019-03-03T11:31:16.141Z,8548
2019-03-03T11:32:16.138Z,8656
2019-03-03T11:33:15.861Z,8832
2019-03-03T11:34:15.879Z,9428
2019-03-03T11:35:16.143Z,10028
2019-03-03T11:36:16.116Z,9696
2019-03-03T11:37:16.577Z,9464
2019-03-03T11:38:15.858Z,9232
2019-03-03T11:39:16.362Z,9188
2019-03-03T11:40:16.166Z,9232
2019-03-03T11:41:15.858Z,9372
2019-03-03T11:42:15.842Z,9384
2019-03-03T11:43:15.621Z,9320
2019-03-03T11:44:15.610Z,9092
2019-03-03T11:45:15.878Z,8636
2019-03-03T11:46:15.846Z,8196
2019-03-03T11:47:15.849Z,7996
2019-03-03T11:48:15.585Z,7688
2019-03-03T11:49:15.330Z,7132
2019-03-03T11:50:15.665Z,6796
2019-03-03T11:51:15.849Z,6912
2019-03-03T11:52:16.727Z,7140
2019-03-03T11:53:15.832Z,7340
2019-03-03T11:54:16.054Z,7720
2019-03-03T11:55:15.861Z,8176
2019-03-03T11:56:15.852Z,8080
2019-03-03T11:57:15.642Z,8040
2019-03-03T11:58:15.832Z,7872
2019-03-03T11:59:15.827Z,7300
2019-03-03T12:00:16.950Z,6744
2019-03-03T12:01:15.812Z,6360
2019-03-03T12:02:15.570Z,5948
2019-03-03T12:03:17.356Z,5744
2019-03-03T12:04:15.556Z,5548
2019-03-03T12:05:15.912Z,5500
2019-03-03T12:06:16.039Z,5428
2019-03-03T12:07:15.598Z,5232
2019-03-03T12:08:15.814Z,4872
2019-03-03T12:09:17.479Z,4572
2019-03-03T12:10:15.631Z,4424
2019-03-03T12:11:17.390Z,4308
2019-03-03T12:12:15.781Z,4156
2019-03-03T12:13:17.054Z,3972
2019-03-03T12:14:15.541Z,3812
2019-03-03T12:15:15.785Z,3528
2019-03-03T12:16:16.036Z,3444
2019-03-03T12:17:15.781Z,3524
2019-03-03T12:18:15.792Z,3644
2019-03-03T12:19:16.033Z,3836
2019-03-03T12:20:15.842Z,3860
2019-03-03T12:21:15.509Z,3816
2019-03-03T12:22:16.013Z,3700
2019-03-03T12:23:17.182Z,3604
2019-03-03T12:24:15.785Z,3696
2019-03-03T12:25:15.545Z,3676
2019-03-03T12:26:16.007Z,3636
2019-03-03T12:27:15.511Z,3568
2019-03-03T12:28:15.754Z,3656
2019-03-03T12:29:16.537Z,3872
2019-03-03T12:30:15.497Z,4152
2019-03-03T12:31:15.993Z,4196
2019-03-03T12:32:15.257Z,4152
2019-03-03T12:33:16.003Z,4260
2019-03-03T12:34:15.748Z,4412
2019-03-03T12:35:15.775Z,4836
2019-03-03T12:36:15.997Z,5008
2019-03-03T12:37:15.485Z,5436
2019-03-03T12:38:15.737Z,5572
2019-03-03T12:39:15.984Z,5300
2019-03-03T12:40:16.100Z,5044
2019-03-03T12:41:15.988Z,5128
2019-03-03T12:42:15.983Z,5272
2019-03-03T12:43:15.511Z,5576
2019-03-03T12:44:15.715Z,5700
2019-03-03T12:45:15.815Z,5820
2019-03-03T12:46:15.975Z,6216
2019-03-03T12:47:15.969Z,6612
2019-03-03T12:48:15.718Z,7140
2019-03-03T12:49:15.970Z,7584
2019-03-03T12:50:15.777Z,7732
2019-03-03T12:51:15.459Z,7792
2019-03-03T12:52:15.954Z,7856
2019-03-03T12:53:15.462Z,8044
2019-03-03T12:54:15.446Z,8200
2019-03-03T12:55:16.052Z,8084
2019-03-03T12:56:15.450Z,7868
2019-03-03T12:57:15.940Z,7576
2019-03-03T12:58:15.757Z,7332
2019-03-03T12:59:15.945Z,7060
2019-03-03T13:00:15.843Z,7092
2019-03-03T13:01:15.687Z,6908
2019-03-03T13:02:15.706Z,6456
2019-03-03T13:03:15.704Z,5784
2019-03-03T13:04:15.672Z,5304
2019-03-03T13:05:15.768Z,4976
2019-03-03T13:06:24.035Z,4716
2019-03-03T13:07:15.435Z,4532
2019-03-03T13:08:15.408Z,4524
2019-03-03T13:09:15.558Z,4472
2019-03-03T13:10:17.861Z,4428
2019-03-03T13:11:15.947Z,4448
2019-03-03T13:12:15.925Z,4260
2019-03-03T13:13:15.902Z,4124
2019-03-03T13:14:15.701Z,4224
2019-03-03T13:15:15.748Z,4360
2019-03-03T13:16:15.652Z,4336
2019-03-03T13:17:15.904Z,4332
2019-03-03T13:18:15.909Z,4576
2019-03-03T13:19:15.655Z,4708
2019-03-03T13:20:15.241Z,4684
2019-03-03T13:21:15.390Z,4124
2019-03-03T13:22:15.898Z,3888
2019-03-03T13:23:15.780Z,3956
2019-03-03T13:24:15.509Z,4420
2019-03-03T13:25:15.516Z,4676
2019-03-03T13:26:15.638Z,4568
2019-03-03T13:27:15.389Z,4384
2019-03-03T13:28:15.643Z,4512
2019-03-03T13:29:15.626Z,4668
2019-03-03T13:30:15.628Z,4812
2019-03-03T13:31:15.644Z,4808
2019-03-03T13:32:15.615Z,5044
2019-03-03T13:33:15.648Z,5436
2019-03-03T13:34:15.620Z,5368
2019-03-03T13:35:15.605Z,5400
2019-03-03T13:36:15.356Z,5616
2019-03-03T13:37:15.368Z,5944
2019-03-03T13:38:15.857Z,6164
2019-03-03T13:39:15.863Z,6192
2019-03-03T13:40:15.695Z,5892
2019-03-03T13:41:15.595Z,5884
2019-03-03T13:42:15.390Z,6080
2019-03-03T13:43:15.612Z,5900
2019-03-03T13:44:15.102Z,5684
2019-03-03T13:45:15.926Z,5452
2019-03-03T13:46:15.343Z,5428
2019-03-03T13:47:15.590Z,5800
2019-03-03T13:48:16.178Z,6460
2019-03-03T13:49:15.612Z,6828
2019-03-03T13:50:15.921Z,6928
2019-03-03T13:51:15.590Z,6804
2019-03-03T13:52:15.622Z,6284
2019-03-03T13:53:15.835Z,5352
2019-03-03T13:54:15.352Z,4936
2019-03-03T13:55:15.936Z,4736